createdAt,value
2018-09-22T00:00:41.166Z,12.89
2018-09-22T00:03:09.516Z,12.94
2018-09-22T00:05:37.873Z,12.95
2018-09-22T00:08:06.212Z,12.93
2018-09-22T00:10:34.556Z,12.88
2018-09-22T00:13:02.912Z,12.88
2018-09-22T00:15:31.240Z,12.89
2018-09-22T00:17:59.637Z,12.84
2018-09-22T00:20:28.077Z,12.78
2018-09-22T00:22:56.408Z,12.71
2018-09-22T00:25:24.776Z,12.76
2018-09-22T00:27:53.074Z,12.83
2018-09-22T00:30:21.454Z,12.83
2018-09-22T00:32:49.812Z,12.85
2018-09-22T00:35:18.139Z,12.86
2018-09-22T00:37:46.538Z,12.91
2018-09-22T00:40:14.875Z,12.90
2018-09-22T00:42:43.289Z,12.91
2018-09-22T00:45:11.629Z,12.94
2018-09-22T00:47:39.939Z,12.98
2018-09-22T00:50:08.263Z,12.99
2018-09-22T00:52:36.576Z,13.02
2018-09-22T00:55:05.141Z,13.05
2018-09-22T00:57:33.468Z,13.04
2018-09-22T01:00:01.822Z,13.04
2018-09-22T01:02:31.478Z,13.07
2018-09-22T01:04:59.847Z,13.09
2018-09-22T01:07:28.187Z,13.10
2018-09-22T01:09:56.516Z,13.06
2018-09-22T01:12:24.985Z,13.08
2018-09-22T01:14:53.319Z,13.02
2018-09-22T01:17:21.654Z,12.94
2018-09-22T01:19:49.982Z,12.96
2018-09-22T01:22:18.424Z,12.94
2018-09-22T01:24:46.751Z,12.92
2018-09-22T01:27:15.108Z,12.90
2018-09-22T01:29:43.471Z,12.83
2018-09-22T01:32:11.796Z,12.74
2018-09-22T01:34:40.117Z,12.78
2018-09-22T01:37:08.467Z,12.82
2018-09-22T01:39:36.800Z,12.81
2018-09-22T01:42:05.167Z,12.84
2018-09-22T01:44:34.451Z,12.81
2018-09-22T01:47:02.807Z,12.75
2018-09-22T01:49:31.966Z,12.70
2018-09-22T01:52:00.401Z,12.62
2018-09-22T01:54:28.717Z,12.61
2018-09-22T01:56:57.055Z,12.60
2018-09-22T01:59:26.112Z,12.57
2018-09-22T02:01:54.475Z,12.57
2018-09-22T02:04:22.819Z,12.55
2018-09-22T02:06:51.143Z,12.52
2018-09-22T02:09:19.492Z,12.51
2018-09-22T02:11:47.833Z,12.49
2018-09-22T02:14:16.153Z,12.48
2018-09-22T02:16:44.457Z,12.43
2018-09-22T02:19:12.815Z,12.40
2018-09-22T02:21:41.288Z,12.41
2018-09-22T02:24:09.644Z,12.39
2018-09-22T02:26:37.995Z,12.38
2018-09-22T02:29:06.497Z,12.37
2018-09-22T02:31:34.920Z,12.39
2018-09-22T02:34:03.301Z,12.43
2018-09-22T02:36:31.640Z,12.45
2018-09-22T02:38:59.972Z,12.42
2018-09-22T02:41:28.335Z,12.44
2018-09-22T02:43:56.744Z,12.43
2018-09-22T02:46:25.062Z,12.46
2018-09-22T02:48:53.380Z,12.48
2018-09-22T02:51:21.736Z,12.46
2018-09-22T02:53:50.148Z,12.42
2018-09-22T02:56:18.462Z,12.40
2018-09-22T02:58:46.791Z,12.37
2018-09-22T03:01:15.116Z,12.34
2018-09-22T03:03:43.441Z,12.35
2018-09-22T03:06:11.776Z,12.34
2018-09-22T03:08:40.126Z,12.34
2018-09-22T03:11:08.499Z,12.33
2018-09-22T03:13:36.834Z,12.32
2018-09-22T03:16:05.166Z,12.36
2018-09-22T03:18:33.516Z,12.40
2018-09-22T03:21:03.261Z,12.40
2018-09-22T03:23:31.684Z,12.37
2018-09-22T03:26:00.000Z,12.36
2018-09-22T03:28:28.352Z,12.33
2018-09-22T03:30:56.837Z,12.37
2018-09-22T03:33:25.222Z,12.39
2018-09-22T03:35:53.528Z,12.38
2018-09-22T03:38:21.993Z,12.32
2018-09-22T03:40:50.269Z,12.33
2018-09-22T03:43:18.654Z,12.29
2018-09-22T03:45:46.981Z,12.28
2018-09-22T03:48:15.333Z,12.28
2018-09-22T03:50:43.660Z,12.26
2018-09-22T03:53:12.129Z,12.25
2018-09-22T03:55:40.530Z,12.24
2018-09-22T03:58:08.884Z,12.24
2018-09-22T04:00:37.226Z,12.23
2018-09-22T04:03:05.897Z,12.22
2018-09-22T04:05:34.227Z,12.21
2018-09-22T04:08:02.624Z,12.22
2018-09-22T04:10:30.976Z,12.22
2018-09-22T04:12:59.310Z,12.22
2018-09-22T04:15:27.696Z,12.20
2018-09-22T04:17:56.272Z,12.19
2018-09-22T04:20:24.612Z,12.20
2018-09-22T04:22:53.872Z,12.16
2018-09-22T04:25:22.204Z,12.16
2018-09-22T04:27:50.565Z,12.13
2018-09-22T04:30:19.255Z,12.12
2018-09-22T04:32:47.632Z,12.11
2018-09-22T04:35:15.953Z,12.09
2018-09-22T04:37:50.801Z,12.08
2018-09-22T04:40:19.121Z,12.06
2018-09-22T04:42:47.471Z,12.07
2018-09-22T04:45:15.851Z,12.06
2018-09-22T04:47:44.201Z,12.06
2018-09-22T04:50:12.530Z,12.07
2018-09-22T04:52:40.884Z,12.07
2018-09-22T04:55:09.241Z,12.07
2018-09-22T04:57:37.597Z,12.09
2018-09-22T05:00:06.059Z,12.09
2018-09-22T05:02:34.392Z,12.11
2018-09-22T05:06:27.175Z,12.12
2018-09-22T05:08:55.820Z,12.17
2018-09-22T05:11:24.200Z,12.18
2018-09-22T05:13:52.536Z,12.18
2018-09-22T05:16:20.847Z,12.18
2018-09-22T05:18:49.256Z,12.20
2018-09-22T05:21:17.636Z,12.22
2018-09-22T05:23:45.967Z,12.24
2018-09-22T05:26:14.295Z,12.26
2018-09-22T05:28:42.723Z,12.27
2018-09-22T05:31:11.118Z,12.29
2018-09-22T05:33:39.467Z,12.32
2018-09-22T05:36:07.840Z,12.34
2018-09-22T05:38:36.156Z,12.37
2018-09-22T05:41:04.514Z,12.37
2018-09-22T05:43:32.829Z,12.40
2018-09-22T05:46:01.156Z,12.42
2018-09-22T05:48:29.491Z,12.48
2018-09-22T05:50:57.809Z,12.53
2018-09-22T05:53:26.161Z,12.58
2018-09-22T05:55:54.564Z,12.64
2018-09-22T05:58:23.002Z,12.68
2018-09-22T06:00:51.386Z,12.75
2018-09-22T06:03:19.816Z,12.80
2018-09-22T06:05:48.116Z,12.86
2018-09-22T06:08:16.482Z,12.92
2018-09-22T06:10:44.843Z,12.99
2018-09-22T06:13:13.254Z,13.01
2018-09-22T06:15:41.668Z,13.03
2018-09-22T06:18:10.046Z,13.00
2018-09-22T06:20:44.745Z,13.00
2018-09-22T06:23:13.257Z,13.01
2018-09-22T06:25:41.577Z,13.07
2018-09-22T06:28:09.932Z,13.13
2018-09-22T06:30:38.297Z,13.19
2018-09-22T06:33:06.704Z,13.20
2018-09-22T06:35:35.156Z,13.29
2018-09-22T06:38:03.557Z,13.35
2018-09-22T06:40:31.925Z,13.34
2018-09-22T06:43:00.227Z,13.34
2018-09-22T06:45:28.641Z,13.32
2018-09-22T06:47:56.978Z,13.30
2018-09-22T06:50:25.369Z,13.28
2018-09-22T06:52:53.728Z,13.33
2018-09-22T06:55:22.139Z,13.46
2018-09-22T06:57:50.504Z,13.68
2018-09-22T07:00:18.853Z,13.87
2018-09-22T07:02:47.241Z,13.99
2018-09-22T07:05:15.637Z,14.03
2018-09-22T07:07:44.108Z,14.07
2018-09-22T07:10:12.589Z,14.13
2018-09-22T07:12:40.962Z,14.18
2018-09-22T07:15:09.314Z,14.22
2018-09-22T07:17:37.687Z,14.21
2018-09-22T07:20:06.114Z,14.18
2018-09-22T07:22:39.792Z,14.22
2018-09-22T07:25:09.070Z,14.17
2018-09-22T07:27:37.432Z,14.25
2018-09-22T07:30:05.778Z,14.30
2018-09-22T07:32:34.155Z,14.35
2018-09-22T07:35:02.521Z,14.39
2018-09-22T07:37:30.893Z,14.37
2018-09-22T07:39:59.270Z,14.31
2018-09-22T07:42:27.634Z,14.29
2018-09-22T07:44:56.032Z,14.35
2018-09-22T07:47:24.391Z,14.45
2018-09-22T07:49:52.769Z,14.54
2018-09-22T07:52:21.127Z,14.72
2018-09-22T07:54:49.543Z,14.88
2018-09-22T07:57:19.119Z,15.05
2018-09-22T07:59:47.474Z,15.16
2018-09-22T08:02:15.880Z,15.24
2018-09-22T08:04:44.234Z,15.16
2018-09-22T08:07:12.615Z,15.13
2018-09-22T08:09:41.005Z,15.18
2018-09-22T08:12:09.373Z,15.16
2018-09-22T08:14:37.843Z,15.17
2018-09-22T08:17:06.241Z,15.16
2018-09-22T08:19:34.624Z,15.17
2018-09-22T08:22:03.037Z,15.25
2018-09-22T08:24:31.480Z,15.24
2018-09-22T08:26:59.911Z,15.24
2018-09-22T08:29:28.269Z,15.16
2018-09-22T08:31:56.669Z,15.08
2018-09-22T08:34:25.341Z,15.09
2018-09-22T08:36:53.904Z,15.15
2018-09-22T08:39:22.079Z,15.03
2018-09-22T08:41:50.497Z,15.02
2018-09-22T08:44:18.850Z,14.99
2018-09-22T08:46:47.268Z,15.03
2018-09-22T08:49:15.633Z,15.11
2018-09-22T08:51:44.033Z,15.20
2018-09-22T08:54:12.397Z,15.29
2018-09-22T08:56:40.752Z,15.28
2018-09-22T08:59:09.693Z,15.40
2018-09-22T09:01:38.082Z,15.61
2018-09-22T09:04:07.176Z,15.90
2018-09-22T09:06:35.570Z,16.16
2018-09-22T09:09:05.427Z,16.29
2018-09-22T09:11:33.850Z,16.47
2018-09-22T09:14:02.242Z,16.60
2018-09-22T09:16:30.559Z,16.68
2018-09-22T09:18:58.991Z,16.55
2018-09-22T09:21:27.377Z,16.50
2018-09-22T09:23:55.785Z,16.51
2018-09-22T09:26:24.240Z,16.63
2018-09-22T09:28:52.632Z,16.63
2018-09-22T09:31:21.284Z,16.73
2018-09-22T09:33:50.389Z,16.82
2018-09-22T09:36:19.035Z,16.89
2018-09-22T09:38:47.379Z,16.98
2018-09-22T09:41:16.427Z,17.03
2018-09-22T09:43:45.695Z,17.03
2018-09-22T09:46:14.156Z,17.12
2018-09-22T09:48:42.529Z,17.22
2018-09-22T09:51:10.997Z,17.22
2018-09-22T09:53:39.340Z,17.26
2018-09-22T09:56:07.725Z,17.37
2018-09-22T09:58:36.091Z,17.51
2018-09-22T10:01:04.502Z,17.62
2018-09-22T10:03:32.975Z,17.55
2018-09-22T10:06:01.349Z,17.40
2018-09-22T10:08:29.739Z,17.40
2018-09-22T10:10:58.717Z,17.42
2018-09-22T10:13:27.228Z,17.33
2018-09-22T10:15:55.629Z,17.28
2018-09-22T10:18:24.035Z,17.13
2018-09-22T10:20:52.419Z,17.05
2018-09-22T10:23:20.784Z,17.11
2018-09-22T10:25:49.159Z,17.29
2018-09-22T10:28:17.495Z,17.39
2018-09-22T10:30:45.862Z,17.40
2018-09-22T10:33:28.127Z,17.44
2018-09-22T10:35:56.538Z,17.46
2018-09-22T10:38:24.880Z,17.54
2018-09-22T10:40:53.347Z,17.58
2018-09-22T10:43:21.698Z,17.68
2018-09-22T10:45:50.102Z,17.78
2018-09-22T10:48:25.171Z,17.83
2018-09-22T10:50:53.593Z,18.02
2018-09-22T10:53:22.835Z,18.08
2018-09-22T10:55:51.212Z,18.17
2018-09-22T10:58:19.532Z,18.26
2018-09-22T11:00:47.880Z,18.34
2018-09-22T11:03:16.221Z,18.33
2018-09-22T11:05:44.595Z,18.41
2018-09-22T11:08:12.996Z,18.48
2018-09-22T11:10:41.374Z,18.49
2018-09-22T11:13:09.841Z,18.32
2018-09-22T11:15:38.189Z,18.11
2018-09-22T11:18:06.907Z,18.22
2018-09-22T11:20:35.867Z,18.33
2018-09-22T11:23:04.245Z,18.49
2018-09-22T11:25:32.618Z,18.61
2018-09-22T11:28:00.991Z,18.65
2018-09-22T11:30:29.435Z,18.61
2018-09-22T11:32:57.828Z,18.61
2018-09-22T11:35:26.209Z,18.69
2018-09-22T11:37:54.625Z,18.76
2018-09-22T11:40:22.989Z,18.83
2018-09-22T11:42:51.518Z,18.74
2018-09-22T11:45:19.880Z,18.80
2018-09-22T11:47:48.435Z,18.73
2018-09-22T11:50:16.772Z,18.67
2018-09-22T11:52:45.325Z,18.66
2018-09-22T11:55:14.292Z,18.57
2018-09-22T11:57:42.640Z,18.58
2018-09-22T12:00:10.998Z,18.43
2018-09-22T12:02:40.481Z,18.41
2018-09-22T12:05:08.887Z,18.46
2018-09-22T12:07:37.240Z,18.15
2018-09-22T12:10:05.727Z,18.05
2018-09-22T12:12:34.113Z,18.13
2018-09-22T12:15:02.568Z,18.29
2018-09-22T12:17:30.948Z,18.35
2018-09-22T12:19:59.626Z,18.34
2018-09-22T12:22:28.023Z,18.40
2018-09-22T12:24:56.378Z,18.50
2018-09-22T12:27:24.735Z,18.55
2018-09-22T12:29:53.090Z,18.67
2018-09-22T12:32:21.445Z,18.75
2018-09-22T12:34:49.854Z,18.75
2018-09-22T12:37:18.171Z,18.61
2018-09-22T12:39:46.581Z,18.62
2018-09-22T12:42:14.997Z,18.62
2018-09-22T12:44:43.375Z,18.70
2018-09-22T12:47:11.821Z,18.76
2018-09-22T12:49:40.171Z,18.81
2018-09-22T12:52:08.593Z,18.87
2018-09-22T12:54:36.999Z,18.83
2018-09-22T12:57:05.356Z,18.80
2018-09-22T12:59:33.769Z,18.74
2018-09-22T13:02:02.183Z,18.77
2018-09-22T13:04:30.593Z,18.60
2018-09-22T13:06:58.931Z,18.60
2018-09-22T13:09:27.673Z,18.55
2018-09-22T13:11:56.081Z,18.39
2018-09-22T13:14:24.444Z,18.14
2018-09-22T13:16:52.906Z,18.14
2018-09-22T13:19:21.426Z,18.12
2018-09-22T13:21:49.798Z,18.04
2018-09-22T13:24:18.197Z,18.08
2018-09-22T13:26:46.705Z,18.10
2018-09-22T13:29:15.057Z,18.04
2018-09-22T13:31:43.429Z,17.97
2018-09-22T13:34:11.873Z,17.97
2018-09-22T13:36:40.290Z,17.96
2018-09-22T13:39:10.207Z,18.00
2018-09-22T13:41:38.557Z,18.09
2018-09-22T13:44:06.945Z,18.15
2018-09-22T13:46:35.290Z,18.16
2018-09-22T13:49:03.733Z,18.08
2018-09-22T13:51:32.078Z,18.08
2018-09-22T13:54:00.415Z,18.11
2018-09-22T13:56:28.765Z,18.03
2018-09-22T13:58:57.440Z,17.98
2018-09-22T14:01:25.840Z,17.98
2018-09-22T14:03:54.763Z,17.94
2018-09-22T14:06:23.152Z,18.00
2018-09-22T14:08:51.568Z,17.97
2018-09-22T14:11:19.939Z,17.85
2018-09-22T14:13:48.286Z,17.85
2018-09-22T14:16:18.122Z,17.80
2018-09-22T14:18:46.806Z,17.68
2018-09-22T14:21:15.218Z,17.60
2018-09-22T14:23:43.517Z,17.56
2018-09-22T14:26:11.900Z,17.57
2018-09-22T14:28:40.313Z,17.50
2018-09-22T14:31:08.703Z,17.55
2018-09-22T14:33:37.320Z,17.53
2018-09-22T14:36:05.668Z,17.49
2018-09-22T14:38:34.050Z,17.41
2018-09-22T14:41:02.425Z,17.41
2018-09-22T14:43:30.804Z,17.38
2018-09-22T14:46:00.185Z,17.32
2018-09-22T14:48:28.586Z,17.14
2018-09-22T14:50:56.959Z,16.97
2018-09-22T14:53:25.326Z,16.63
2018-09-22T14:55:53.756Z,16.33
2018-09-22T14:58:22.125Z,16.11
2018-09-22T15:00:50.506Z,15.78
2018-09-22T15:03:18.905Z,15.47
2018-09-22T15:05:47.259Z,15.28
2018-09-22T15:08:15.660Z,15.18
2018-09-22T15:10:44.183Z,15.15
2018-09-22T15:13:12.574Z,15.08
2018-09-22T15:15:40.958Z,15.03
2018-09-22T15:18:09.333Z,14.98
2018-09-22T15:20:37.718Z,15.00
2018-09-22T15:23:06.180Z,14.98
2018-09-22T15:25:34.525Z,14.96
2018-09-22T15:28:02.896Z,14.93
2018-09-22T15:30:31.354Z,14.95
2018-09-22T15:32:59.690Z,14.97
2018-09-22T15:35:28.069Z,14.97
2018-09-22T15:37:56.428Z,14.95
2018-09-22T15:40:24.814Z,14.93
2018-09-22T15:42:53.426Z,14.87
2018-09-22T15:45:21.855Z,14.79
2018-09-22T15:47:50.210Z,14.70
2018-09-22T15:50:18.674Z,14.66
2018-09-22T15:52:47.023Z,14.64
2018-09-22T15:55:15.426Z,14.65
2018-09-22T15:57:43.789Z,14.69
2018-09-22T16:00:12.175Z,14.69
2018-09-22T16:02:40.871Z,14.66
2018-09-22T16:05:09.212Z,14.60
2018-09-22T16:07:37.588Z,14.54
2018-09-22T16:10:06.232Z,14.51
2018-09-22T16:12:36.103Z,14.45
2018-09-22T16:15:04.596Z,14.43
2018-09-22T16:17:33.006Z,14.39
2018-09-22T16:20:01.529Z,14.35
2018-09-22T16:22:29.879Z,14.32
2018-09-22T16:24:58.211Z,14.19
2018-09-22T16:27:27.330Z,14.17
2018-09-22T16:29:55.647Z,14.18
2018-09-22T16:32:24.102Z,14.18
2018-09-22T16:34:52.427Z,14.20
2018-09-22T16:37:20.825Z,14.20
2018-09-22T16:39:49.221Z,14.20
2018-09-22T16:42:17.610Z,14.20
2018-09-22T16:44:45.985Z,14.17
2018-09-22T16:47:14.450Z,14.14
2018-09-22T16:49:42.811Z,14.15
2018-09-22T16:52:11.145Z,14.10
2018-09-22T16:54:39.492Z,14.09
2018-09-22T16:57:07.831Z,14.05
2018-09-22T16:59:36.240Z,14.02
2018-09-22T17:02:04.607Z,13.99
2018-09-22T17:04:33.000Z,13.94
2018-09-22T17:07:01.333Z,13.90
2018-09-22T17:09:29.801Z,13.87
2018-09-22T17:11:58.136Z,13.88
2018-09-22T17:14:26.493Z,13.81
2018-09-22T17:16:54.869Z,13.57
2018-09-22T17:19:23.243Z,13.50
2018-09-22T17:21:51.590Z,13.46
2018-09-22T17:24:20.005Z,13.38
2018-09-22T17:26:48.405Z,13.32
2018-09-22T17:29:16.772Z,13.27
2018-09-22T17:31:45.128Z,13.26
2018-09-22T17:34:13.484Z,13.26
2018-09-22T17:36:41.841Z,13.26
2018-09-22T17:39:10.964Z,13.23
2018-09-22T17:41:39.313Z,13.23
2018-09-22T17:44:07.654Z,13.23
2018-09-22T17:46:36.061Z,13.26
2018-09-22T17:49:04.437Z,13.30
2018-09-22T17:51:32.811Z,13.32
2018-09-22T17:54:01.120Z,13.31
2018-09-22T17:56:29.548Z,13.32
2018-09-22T17:58:57.919Z,13.31
2018-09-22T18:01:26.425Z,13.27
2018-09-22T18:03:54.787Z,13.20
2018-09-22T18:06:23.190Z,13.19
2018-09-22T18:08:51.560Z,13.15
2018-09-22T18:11:19.920Z,13.12
2018-09-22T18:13:48.267Z,13.08
2018-09-22T18:16:16.615Z,13.08
2018-09-22T18:18:45.202Z,13.09
2018-09-22T18:21:13.543Z,13.12
2018-09-22T18:23:41.885Z,13.14
2018-09-22T18:26:10.257Z,13.16
2018-09-22T18:28:38.778Z,13.16
2018-09-22T18:31:07.224Z,13.15
2018-09-22T18:33:35.627Z,13.11
2018-09-22T18:36:03.981Z,13.11
2018-09-22T18:38:32.368Z,13.12
2018-09-22T18:41:00.722Z,13.14
2018-09-22T18:43:29.153Z,13.12
2018-09-22T18:45:57.493Z,13.06
2018-09-22T18:48:25.883Z,13.02
2018-09-22T18:50:54.227Z,13.01
2018-09-22T18:53:22.612Z,13.02
2018-09-22T18:55:51.155Z,12.94
2018-09-22T18:58:19.533Z,12.92
2018-09-22T19:00:47.869Z,12.91
2018-09-22T19:03:16.241Z,12.88
2018-09-22T19:05:44.628Z,12.89
2018-09-22T19:08:12.959Z,12.86
2018-09-22T19:10:41.347Z,12.86
2018-09-22T19:13:11.576Z,12.84
2018-09-22T19:15:50.006Z,12.82
2018-09-22T19:18:21.757Z,12.80
2018-09-22T19:20:55.389Z,12.82
2018-09-22T19:23:28.370Z,12.83
2018-09-22T19:26:00.468Z,12.81
2018-09-22T19:28:34.029Z,12.82
2018-09-22T19:31:06.106Z,12.82
2018-09-22T19:33:45.501Z,12.82
2018-09-22T19:36:31.768Z,12.82
2018-09-22T19:39:11.963Z,12.82
2018-09-22T19:41:50.235Z,12.82
2018-09-22T19:44:21.651Z,12.82
2018-09-22T19:46:53.920Z,12.79
2018-09-22T19:49:25.994Z,12.78
2018-09-22T19:51:58.976Z,12.76
2018-09-22T19:54:27.369Z,12.75
2018-09-22T19:56:55.754Z,12.75
2018-09-22T19:59:24.149Z,12.76
2018-09-22T20:01:52.670Z,12.76
2018-09-22T20:04:21.047Z,12.75
2018-09-22T20:06:49.400Z,12.75
2018-09-22T20:09:18.148Z,12.76
2018-09-22T20:11:46.524Z,12.74
2018-09-22T20:14:14.929Z,12.73
2018-09-22T20:16:43.321Z,12.73
2018-09-22T20:19:11.698Z,12.71
2018-09-22T20:21:40.101Z,12.71
2018-09-22T20:24:08.454Z,12.70
2018-09-22T20:26:36.838Z,12.71
2018-09-22T20:29:05.196Z,12.71
2018-09-22T20:31:33.601Z,12.70
2018-09-22T20:34:02.320Z,12.71
2018-09-22T20:36:33.617Z,12.69
2018-09-22T20:39:02.013Z,12.67
2018-09-22T20:41:30.379Z,12.65
2018-09-22T20:43:58.795Z,12.63
2018-09-22T20:46:27.167Z,12.65
2018-09-22T20:48:55.477Z,12.67
2018-09-22T20:51:23.828Z,12.67
2018-09-22T20:53:52.310Z,12.66
2018-09-22T20:56:20.575Z,12.65
2018-09-22T20:58:48.968Z,12.66
2018-09-22T21:01:17.516Z,12.66
2018-09-22T21:03:45.881Z,12.68
2018-09-22T21:06:14.235Z,12.69
2018-09-22T21:08:42.607Z,12.67
2018-09-22T21:11:10.987Z,12.67
2018-09-22T21:13:39.408Z,12.67
2018-09-22T21:16:07.788Z,12.69
2018-09-22T21:18:36.251Z,12.67
2018-09-22T21:21:04.754Z,12.65
2018-09-22T21:23:33.142Z,12.63
2018-09-22T21:26:01.516Z,12.60
2018-09-22T21:28:29.875Z,12.58
2018-09-22T21:30:58.392Z,12.57
2018-09-22T21:33:26.735Z,12.56
2018-09-22T21:35:55.070Z,12.56
2018-09-22T21:38:23.438Z,12.56
2018-09-22T21:40:51.836Z,12.56
2018-09-22T21:43:20.396Z,12.55
2018-09-22T21:45:49.122Z,12.54
2018-09-22T21:48:17.533Z,12.52
2018-09-22T21:50:45.874Z,12.56
2018-09-22T21:53:14.236Z,12.55
2018-09-22T21:55:42.612Z,12.54
2018-09-22T21:58:11.010Z,12.52
2018-09-22T22:00:39.399Z,12.52
2018-09-22T22:03:07.781Z,12.53
2018-09-22T22:05:36.568Z,12.55
2018-09-22T22:08:04.899Z,12.53
2018-09-22T22:10:33.277Z,12.55
2018-09-22T22:13:01.700Z,12.55
2018-09-22T22:15:30.073Z,12.56
2018-09-22T22:17:58.419Z,12.56
2018-09-22T22:20:26.802Z,12.56
2018-09-22T22:22:55.166Z,12.56
2018-09-22T22:25:23.548Z,12.55
2018-09-22T22:27:51.902Z,12.56
2018-09-22T22:30:20.281Z,12.57
2018-09-22T22:32:48.635Z,12.57
2018-09-22T22:35:17.046Z,12.55
2018-09-22T22:37:45.408Z,12.56
2018-09-22T22:40:13.754Z,12.55
2018-09-22T22:42:42.109Z,12.55
2018-09-22T22:45:10.619Z,12.56
2018-09-22T22:47:39.001Z,12.58
2018-09-22T22:50:07.457Z,12.56
2018-09-22T22:52:35.824Z,12.57
2018-09-22T22:55:04.149Z,12.56
2018-09-22T22:57:32.504Z,12.52
2018-09-22T23:00:00.923Z,12.52
2018-09-22T23:02:29.274Z,12.53
2018-09-22T23:04:57.710Z,12.52
2018-09-22T23:07:26.056Z,12.52
2018-09-22T23:09:54.523Z,12.50
2018-09-22T23:12:22.864Z,12.50
2018-09-22T23:14:51.259Z,12.50
2018-09-22T23:17:19.629Z,12.52
2018-09-22T23:19:48.265Z,12.51
2018-09-22T23:22:16.795Z,12.51
2018-09-22T23:24:45.151Z,12.50
2018-09-22T23:27:13.501Z,12.50
2018-09-22T23:29:41.878Z,12.49
2018-09-22T23:32:10.270Z,12.48
2018-09-22T23:34:38.687Z,12.48
2018-09-22T23:37:07.063Z,12.46
2018-09-22T23:39:35.415Z,12.45
2018-09-22T23:42:03.787Z,12.45
2018-09-22T23:44:32.208Z,12.44
2018-09-22T23:47:00.577Z,12.43
2018-09-22T23:49:28.957Z,12.43
2018-09-22T23:51:57.351Z,12.41
2018-09-22T23:54:25.745Z,12.39
2018-09-22T23:56:54.101Z,12.38
2018-09-22T23:59:22.671Z,12.37
